createdAt,value
2018-07-02T00:00:43.813Z,0.00
2018-07-02T00:01:43.790Z,0.00
2018-07-02T00:02:43.777Z,0.00
2018-07-02T00:03:43.767Z,0.00
2018-07-02T00:04:43.760Z,0.00
2018-07-02T00:05:43.759Z,0.00
2018-07-02T00:06:43.741Z,0.00
2018-07-02T00:07:43.726Z,0.00
2018-07-02T00:08:43.715Z,0.00
2018-07-02T00:09:43.701Z,0.00
2018-07-02T00:10:43.733Z,0.00
2018-07-02T00:11:43.678Z,0.00
2018-07-02T00:12:43.668Z,0.00
2018-07-02T00:13:43.657Z,0.00
2018-07-02T00:14:43.651Z,0.00
2018-07-02T00:15:43.635Z,0.00
2018-07-02T00:16:43.638Z,0.00
2018-07-02T00:17:44.033Z,0.00
2018-07-02T00:18:43.601Z,0.00
2018-07-02T00:19:43.593Z,0.00
2018-07-02T00:20:43.582Z,0.00
2018-07-02T00:21:43.582Z,0.00
2018-07-02T00:22:43.556Z,0.00
2018-07-02T00:23:43.550Z,0.00
2018-07-02T00:24:43.534Z,0.00
2018-07-02T00:25:43.557Z,0.00
2018-07-02T00:26:43.527Z,0.00
2018-07-02T00:27:43.503Z,0.00
2018-07-02T00:28:43.488Z,0.00
2018-07-02T00:29:43.480Z,0.00
2018-07-02T00:30:43.469Z,0.00
2018-07-02T00:31:43.501Z,0.00
2018-07-02T00:32:43.445Z,0.00
2018-07-02T00:33:43.433Z,0.00
2018-07-02T00:34:43.422Z,0.00
2018-07-02T00:35:43.416Z,0.00
2018-07-02T00:36:43.422Z,0.00
2018-07-02T00:37:43.390Z,0.00
2018-07-02T00:38:43.377Z,0.00
2018-07-02T00:39:43.368Z,0.00
2018-07-02T00:40:43.355Z,0.00
2018-07-02T00:41:43.346Z,0.00
2018-07-02T00:42:43.347Z,0.00
2018-07-02T00:43:43.321Z,0.00
2018-07-02T00:44:43.311Z,0.00
2018-07-02T00:45:43.298Z,0.00
2018-07-02T00:46:43.287Z,0.00
2018-07-02T00:47:43.292Z,0.00
2018-07-02T00:48:43.264Z,0.00
2018-07-02T00:49:43.254Z,0.00
2018-07-02T00:50:43.241Z,0.00
2018-07-02T00:51:43.230Z,0.00
2018-07-02T00:52:43.240Z,0.00
2018-07-02T00:53:43.208Z,0.00
2018-07-02T00:54:43.197Z,0.00
2018-07-02T00:55:43.187Z,0.00
2018-07-02T00:56:43.175Z,0.00
2018-07-02T00:57:43.163Z,0.00
2018-07-02T00:58:43.166Z,0.00
2018-07-02T00:59:43.143Z,0.00
2018-07-02T01:00:43.133Z,0.00
2018-07-02T01:01:43.118Z,0.00
2018-07-02T01:02:43.110Z,0.00
2018-07-02T01:03:43.109Z,0.00
2018-07-02T01:04:43.085Z,0.00
2018-07-02T01:05:43.074Z,0.00
2018-07-02T01:06:43.065Z,0.00
2018-07-02T01:07:43.054Z,0.00
2018-07-02T01:08:43.055Z,0.00
2018-07-02T01:09:43.030Z,0.00
2018-07-02T01:10:43.020Z,0.00
2018-07-02T01:11:43.009Z,0.00
2018-07-02T01:12:43.005Z,0.00
2018-07-02T01:13:43.000Z,0.00
2018-07-02T01:14:42.977Z,0.00
2018-07-02T01:15:42.972Z,0.00
2018-07-02T01:16:42.956Z,0.00
2018-07-02T01:17:42.946Z,0.00
2018-07-02T01:18:42.959Z,0.00
2018-07-02T01:19:42.921Z,0.00
2018-07-02T01:20:42.909Z,0.00
2018-07-02T01:21:42.898Z,0.00
2018-07-02T01:22:42.890Z,0.00
2018-07-02T01:23:42.897Z,0.00
2018-07-02T01:24:42.867Z,0.00
2018-07-02T01:25:42.856Z,0.00
2018-07-02T01:26:42.845Z,0.00
2018-07-02T01:27:42.835Z,0.00
2018-07-02T01:28:42.831Z,0.00
2018-07-02T01:29:42.829Z,0.00
2018-07-02T01:30:42.802Z,0.00
2018-07-02T01:31:42.792Z,0.00
2018-07-02T01:32:42.785Z,0.00
2018-07-02T01:33:42.791Z,0.00
2018-07-02T01:34:42.775Z,0.00
2018-07-02T01:35:42.751Z,0.00
2018-07-02T01:36:42.741Z,0.00
2018-07-02T01:37:42.729Z,0.00
2018-07-02T01:38:42.719Z,0.00
2018-07-02T01:39:42.722Z,0.00
2018-07-02T01:40:42.698Z,0.00
2018-07-02T01:41:42.690Z,0.00
2018-07-02T01:42:42.674Z,0.00
2018-07-02T01:43:42.664Z,0.00
2018-07-02T01:44:42.678Z,0.00
2018-07-02T01:45:42.645Z,0.00
2018-07-02T01:46:42.633Z,0.00
2018-07-02T01:47:42.622Z,0.00
2018-07-02T01:48:42.611Z,0.00
2018-07-02T01:49:42.601Z,0.00
2018-07-02T01:50:42.608Z,0.00
2018-07-02T01:51:42.581Z,0.00
2018-07-02T01:52:42.568Z,0.00
2018-07-02T01:53:42.557Z,0.00
2018-07-02T01:54:42.550Z,0.00
2018-07-02T01:55:42.552Z,0.00
2018-07-02T01:56:42.529Z,0.00
2018-07-02T01:57:42.516Z,0.00
2018-07-02T01:58:42.505Z,0.00
2018-07-02T01:59:42.493Z,0.00
2018-07-02T02:00:42.504Z,0.00
2018-07-02T02:01:42.477Z,0.00
2018-07-02T02:02:42.461Z,0.00
2018-07-02T02:03:42.453Z,0.00
2018-07-02T02:04:42.443Z,0.00
2018-07-02T02:05:42.431Z,0.00
2018-07-02T02:06:42.433Z,0.00
2018-07-02T02:07:42.410Z,0.00
2018-07-02T02:08:42.407Z,0.00
2018-07-02T02:09:42.386Z,0.00
2018-07-02T02:10:42.375Z,0.00
2018-07-02T02:11:42.389Z,0.00
2018-07-02T02:12:42.356Z,0.00
2018-07-02T02:13:42.346Z,0.00
2018-07-02T02:14:42.333Z,0.00
2018-07-02T02:15:42.323Z,0.00
2018-07-02T02:16:42.338Z,0.00
2018-07-02T02:17:42.304Z,0.00
2018-07-02T02:18:42.291Z,0.00
2018-07-02T02:19:42.278Z,0.00
2018-07-02T02:20:42.271Z,0.00
2018-07-02T02:21:42.274Z,0.00
2018-07-02T02:22:42.258Z,0.00
2018-07-02T02:23:42.237Z,0.00
2018-07-02T02:24:42.226Z,0.00
2018-07-02T02:25:42.222Z,0.00
2018-07-02T02:26:42.224Z,0.00
2018-07-02T02:27:42.196Z,0.00
2018-07-02T02:28:42.184Z,0.00
2018-07-02T02:29:42.172Z,0.00
2018-07-02T02:30:42.163Z,0.00
2018-07-02T02:31:42.167Z,0.00
2018-07-02T02:32:42.139Z,0.00
2018-07-02T02:33:42.130Z,0.00
2018-07-02T02:34:42.118Z,0.00
2018-07-02T02:35:42.109Z,0.00
2018-07-02T02:36:42.119Z,0.00
2018-07-02T02:37:42.090Z,0.00
2018-07-02T02:38:42.078Z,0.00
2018-07-02T02:39:42.065Z,0.00
2018-07-02T02:40:42.053Z,0.00
2018-07-02T02:41:42.046Z,0.00
2018-07-02T02:42:42.044Z,0.00
2018-07-02T02:43:42.038Z,0.00
2018-07-02T02:44:42.010Z,0.00
2018-07-02T02:45:42.001Z,0.00
2018-07-02T02:46:42.002Z,0.00
2018-07-02T02:47:41.979Z,0.00
2018-07-02T02:48:41.967Z,0.00
2018-07-02T02:49:41.962Z,0.00
2018-07-02T02:50:41.950Z,0.00
2018-07-02T02:51:41.956Z,0.00
2018-07-02T02:52:41.927Z,0.00
2018-07-02T02:53:41.916Z,0.00
2018-07-02T02:54:41.908Z,0.00
2018-07-02T02:55:41.890Z,0.00
2018-07-02T02:56:41.882Z,0.00
2018-07-02T02:57:41.887Z,0.00
2018-07-02T02:58:41.857Z,0.00
2018-07-02T02:59:41.846Z,0.00
2018-07-02T03:00:41.836Z,0.00
2018-07-02T03:01:41.823Z,0.00
2018-07-02T03:02:41.828Z,0.00
2018-07-02T03:03:41.802Z,0.00
2018-07-02T03:04:41.792Z,0.00
2018-07-02T03:05:41.782Z,0.00
2018-07-02T03:06:41.770Z,0.00
2018-07-02T03:07:41.775Z,0.00
2018-07-02T03:08:41.748Z,0.00
2018-07-02T03:09:41.751Z,0.00
2018-07-02T03:10:41.725Z,0.00
2018-07-02T03:11:41.715Z,0.00
2018-07-02T03:12:41.723Z,0.00
2018-07-02T03:13:41.691Z,0.00
2018-07-02T03:14:41.681Z,5.62
2018-07-02T03:15:41.670Z,5.62
2018-07-02T03:16:41.659Z,5.62
2018-07-02T03:17:41.663Z,5.62
2018-07-02T03:18:41.639Z,5.62
2018-07-02T03:19:41.627Z,5.62
2018-07-02T03:20:41.621Z,5.62
2018-07-02T03:21:41.604Z,5.62
2018-07-02T03:22:41.612Z,5.62
2018-07-02T03:23:41.590Z,5.62
2018-07-02T03:24:41.580Z,11.25
2018-07-02T03:25:41.560Z,11.25
2018-07-02T03:26:41.550Z,11.25
2018-07-02T03:27:41.553Z,11.25
2018-07-02T03:28:41.527Z,11.25
2018-07-02T03:29:41.516Z,11.25
2018-07-02T03:30:41.509Z,16.88
2018-07-02T03:31:41.496Z,16.88
2018-07-02T03:32:41.496Z,16.88
2018-07-02T03:33:41.471Z,16.88
2018-07-02T03:34:41.459Z,22.50
2018-07-02T03:35:41.449Z,22.50
2018-07-02T03:36:41.438Z,22.50
2018-07-02T03:37:41.446Z,22.50
2018-07-02T03:38:41.416Z,28.12
2018-07-02T03:39:41.405Z,28.12
2018-07-02T03:40:41.395Z,28.12
2018-07-02T03:41:41.383Z,33.75
2018-07-02T03:42:41.374Z,33.75
2018-07-02T03:43:41.380Z,39.38
2018-07-02T03:44:41.354Z,39.38
2018-07-02T03:45:41.339Z,45.00
2018-07-02T03:46:41.328Z,50.62
2018-07-02T03:47:41.318Z,67.50
2018-07-02T03:48:41.321Z,78.75
2018-07-02T03:49:41.294Z,78.75
2018-07-02T03:50:41.285Z,84.38
2018-07-02T03:51:41.273Z,90.00
2018-07-02T03:52:41.268Z,95.62
2018-07-02T03:53:41.276Z,95.62
2018-07-02T03:54:41.241Z,95.62
2018-07-02T03:55:41.231Z,101.25
2018-07-02T03:56:41.221Z,106.88
2018-07-02T03:57:41.209Z,112.50
2018-07-02T03:58:41.201Z,118.12
2018-07-02T03:59:41.200Z,123.75
2018-07-02T04:00:41.175Z,123.75
2018-07-02T04:01:41.166Z,129.38
2018-07-02T04:02:41.153Z,135.00
2018-07-02T04:03:41.144Z,135.00
2018-07-02T04:04:41.167Z,140.62
2018-07-02T04:05:41.120Z,146.25
2018-07-02T04:10:07.808Z,191.25
2018-07-02T04:11:07.781Z,213.75
2018-07-02T04:12:07.819Z,241.88
2018-07-02T04:13:07.787Z,264.38
2018-07-02T04:14:07.745Z,281.25
2018-07-02T04:15:07.736Z,298.12
2018-07-02T04:16:07.755Z,315.00
2018-07-02T04:17:07.711Z,320.62
2018-07-02T04:18:07.703Z,320.62
2018-07-02T04:19:07.701Z,331.88
2018-07-02T04:20:07.682Z,360.00
2018-07-02T04:21:07.670Z,393.75
2018-07-02T04:22:07.679Z,427.50
2018-07-02T04:23:07.649Z,472.50
2018-07-02T04:24:07.638Z,534.38
2018-07-02T04:25:07.626Z,607.50
2018-07-02T04:26:07.616Z,669.38
2018-07-02T04:27:07.607Z,708.75
2018-07-02T04:28:07.614Z,720.00
2018-07-02T04:29:07.581Z,720.00
2018-07-02T04:30:07.571Z,697.50
2018-07-02T04:31:07.563Z,691.88
2018-07-02T04:32:07.550Z,691.88
2018-07-02T04:33:07.539Z,686.25
2018-07-02T04:34:07.558Z,669.38
2018-07-02T04:35:07.518Z,641.25
2018-07-02T04:36:07.506Z,635.62
2018-07-02T04:37:07.497Z,635.62
2018-07-02T04:38:07.485Z,618.75
2018-07-02T04:39:07.473Z,596.25
2018-07-02T04:40:07.484Z,585.00
2018-07-02T04:41:07.459Z,573.75
2018-07-02T04:42:07.439Z,556.88
2018-07-02T04:43:07.437Z,540.00
2018-07-02T04:44:07.434Z,545.62
2018-07-02T04:45:07.482Z,551.25
2018-07-02T04:46:07.415Z,551.25
2018-07-02T04:47:07.387Z,540.00
2018-07-02T04:48:07.381Z,528.75
2018-07-02T04:49:07.362Z,517.50
2018-07-02T04:50:07.352Z,517.50
2018-07-02T04:51:07.341Z,523.12
2018-07-02T04:52:07.369Z,523.12
2018-07-02T04:53:07.324Z,523.12
2018-07-02T04:54:07.312Z,528.75
2018-07-02T04:55:07.298Z,523.12
2018-07-02T04:56:07.288Z,511.88
2018-07-02T04:57:07.277Z,517.50
2018-07-02T04:58:07.285Z,534.38
2018-07-02T04:59:07.256Z,568.12
2018-07-02T05:00:07.248Z,568.12
2018-07-02T05:01:07.237Z,540.00
2018-07-02T05:02:07.223Z,545.62
2018-07-02T05:03:07.212Z,568.12
2018-07-02T05:04:07.222Z,585.00
2018-07-02T05:05:07.190Z,590.62
2018-07-02T05:06:07.180Z,596.25
2018-07-02T05:07:07.170Z,585.00
2018-07-02T05:08:07.161Z,607.50
2018-07-02T05:09:07.148Z,646.88
2018-07-02T05:10:07.162Z,669.38
2018-07-02T05:11:07.126Z,675.00
2018-07-02T05:12:07.114Z,680.62
2018-07-02T05:13:07.104Z,736.88
2018-07-02T05:14:07.095Z,787.50
2018-07-02T05:15:07.085Z,821.25
2018-07-02T05:16:07.112Z,860.62
2018-07-02T05:17:07.066Z,838.12
2018-07-02T05:18:07.053Z,765.00
2018-07-02T05:19:07.040Z,697.50
2018-07-02T05:20:07.030Z,658.12
2018-07-02T05:21:07.018Z,624.38
2018-07-02T05:22:07.030Z,607.50
2018-07-02T05:23:07.003Z,601.88
2018-07-02T05:24:06.989Z,601.88
2018-07-02T05:25:06.974Z,635.62
2018-07-02T05:26:06.964Z,787.50
2018-07-02T05:27:06.952Z,956.25
2018-07-02T05:28:06.973Z,1001.25
2018-07-02T05:29:06.933Z,1046.25
2018-07-02T05:30:06.922Z,1063.12
2018-07-02T05:31:06.911Z,1102.50
2018-07-02T05:32:06.902Z,1147.50
2018-07-02T05:33:06.890Z,1215.00
2018-07-02T05:34:06.903Z,1344.38
2018-07-02T05:35:06.871Z,1530.00
2018-07-02T05:36:06.864Z,1597.50
2018-07-02T05:37:06.851Z,1456.88
2018-07-02T05:38:06.841Z,1400.62
2018-07-02T05:39:06.827Z,1428.75
2018-07-02T05:40:06.843Z,1406.25
2018-07-02T05:41:06.807Z,1383.75
2018-07-02T05:42:06.795Z,1395.00
2018-07-02T05:43:06.784Z,1451.25
2018-07-02T05:44:06.774Z,1828.12
2018-07-02T05:45:06.765Z,1963.12
2018-07-02T05:46:06.788Z,1670.62
2018-07-02T05:47:06.749Z,1451.25
2018-07-02T05:48:06.733Z,1440.00
2018-07-02T05:49:06.721Z,1434.38
2018-07-02T05:50:06.712Z,1445.62
2018-07-02T05:51:06.703Z,1468.12
2018-07-02T05:52:06.709Z,1552.50
2018-07-02T05:53:06.684Z,1580.62
2018-07-02T05:54:06.670Z,1468.12
2018-07-02T05:55:06.830Z,1355.62
2018-07-02T05:56:06.648Z,1501.88
2018-07-02T05:57:06.638Z,1563.75
2018-07-02T05:58:06.647Z,1541.25
2018-07-02T05:59:06.618Z,1558.12
2018-07-02T06:00:06.660Z,1608.75
2018-07-02T06:01:06.596Z,1625.62
2018-07-02T06:02:06.585Z,1608.75
2018-07-02T06:03:06.575Z,1653.75
2018-07-02T06:04:06.595Z,1642.50
2018-07-02T06:05:06.556Z,1676.25
2018-07-02T06:06:06.548Z,1676.25
2018-07-02T06:07:06.535Z,1648.12
2018-07-02T06:08:06.568Z,1636.88
2018-07-02T06:09:06.516Z,1625.62
2018-07-02T06:10:06.529Z,1710.00
2018-07-02T06:11:06.498Z,1766.25
2018-07-02T06:12:06.511Z,1721.25
2018-07-02T06:13:06.568Z,1676.25
2018-07-02T06:14:06.467Z,1665.00
2018-07-02T06:15:06.465Z,1693.12
2018-07-02T06:16:06.496Z,1749.38
2018-07-02T06:17:06.446Z,1648.12
2018-07-02T06:18:06.436Z,1501.88
2018-07-02T06:19:06.419Z,1597.50
2018-07-02T06:20:06.407Z,1693.12
2018-07-02T06:21:06.397Z,1648.12
2018-07-02T06:22:06.413Z,1597.50
2018-07-02T06:23:06.377Z,1625.62
2018-07-02T06:24:06.366Z,1653.75
2018-07-02T06:25:06.356Z,1777.50
2018-07-02T06:26:06.348Z,1906.88
2018-07-02T06:27:06.337Z,1923.75
2018-07-02T06:28:06.348Z,1946.25
2018-07-02T06:29:06.314Z,1968.75
2018-07-02T06:30:06.303Z,1951.88
2018-07-02T06:31:06.292Z,1940.62
2018-07-02T06:32:06.282Z,1929.38
2018-07-02T06:33:06.272Z,1985.62
2018-07-02T06:34:06.285Z,1940.62
2018-07-02T06:35:06.251Z,1918.12
2018-07-02T06:36:06.238Z,2041.88
2018-07-02T06:37:06.229Z,2025.00
2018-07-02T06:38:06.219Z,2064.38
2018-07-02T06:39:06.211Z,2148.75
2018-07-02T06:40:06.229Z,2115.00
2018-07-02T06:41:06.188Z,2120.62
2018-07-02T06:42:06.242Z,2115.00
2018-07-02T06:43:06.180Z,2115.00
2018-07-02T06:44:06.163Z,2216.25
2018-07-02T06:45:06.149Z,2210.62
2018-07-02T06:46:06.159Z,2182.50
2018-07-02T06:47:06.130Z,2103.75
2018-07-02T06:48:06.117Z,2160.00
2018-07-02T06:49:06.109Z,2216.25
2018-07-02T06:50:06.100Z,2205.00
2018-07-02T06:51:06.089Z,2210.62
2018-07-02T06:52:06.104Z,2205.00
2018-07-02T06:53:06.065Z,2216.25
2018-07-02T06:54:06.060Z,2283.75
2018-07-02T06:55:06.056Z,2306.25
2018-07-02T06:56:06.043Z,2266.88
2018-07-02T06:57:06.028Z,2261.25
2018-07-02T06:58:06.051Z,2323.12
2018-07-02T06:59:06.031Z,2283.75
2018-07-02T07:00:06.001Z,2210.62
2018-07-02T07:01:05.989Z,2289.38
2018-07-02T07:02:05.976Z,2525.62
2018-07-02T07:03:05.969Z,2626.88
2018-07-02T07:04:05.997Z,2581.88
2018-07-02T07:05:05.948Z,2480.62
2018-07-02T07:06:05.938Z,2413.12
2018-07-02T07:07:05.929Z,2480.62
2018-07-02T07:08:05.918Z,2413.12
2018-07-02T07:09:05.909Z,2317.50
2018-07-02T07:10:05.918Z,2311.88
2018-07-02T07:11:05.887Z,2401.88
2018-07-02T07:12:05.878Z,2643.75
2018-07-02T07:13:05.868Z,2638.12
2018-07-02T07:14:05.857Z,2463.75
2018-07-02T07:15:05.851Z,2368.12
2018-07-02T07:16:05.867Z,2559.38
2018-07-02T07:17:05.833Z,2722.50
2018-07-02T07:18:05.820Z,2750.62
2018-07-02T07:19:05.809Z,2655.00
2018-07-02T07:20:05.801Z,2638.12
2018-07-02T07:21:05.790Z,2514.38
2018-07-02T07:22:05.798Z,2559.38
2018-07-02T07:23:05.771Z,2688.75
2018-07-02T07:24:05.762Z,2784.38
2018-07-02T07:25:05.751Z,2806.88
2018-07-02T07:26:05.742Z,2784.38
2018-07-02T07:27:05.732Z,2716.88
2018-07-02T07:28:05.740Z,2739.38
2018-07-02T07:29:05.713Z,2795.62
2018-07-02T07:30:05.703Z,2840.62
2018-07-02T07:31:05.696Z,2880.00
2018-07-02T07:32:05.721Z,2840.62
2018-07-02T07:33:05.675Z,2823.75
2018-07-02T07:34:05.695Z,2722.50
2018-07-02T07:35:05.659Z,2683.12
2018-07-02T07:36:05.643Z,2756.25
2018-07-02T07:37:05.636Z,2868.75
2018-07-02T07:38:05.625Z,2958.75
2018-07-02T07:39:05.615Z,2880.00
2018-07-02T07:40:05.635Z,2891.25
2018-07-02T07:41:05.599Z,2992.50
2018-07-02T07:42:05.590Z,2998.12
2018-07-02T07:43:05.684Z,2930.62
2018-07-02T07:44:05.572Z,2975.62
2018-07-02T07:45:05.559Z,3031.88
2018-07-02T07:46:05.572Z,3065.62
2018-07-02T07:47:05.543Z,3116.25
2018-07-02T07:48:05.532Z,3015.00
2018-07-02T07:49:05.523Z,2880.00
2018-07-02T07:50:05.510Z,2953.12
2018-07-02T07:51:05.502Z,3110.62
2018-07-02T07:52:05.521Z,3178.12
2018-07-02T07:53:05.513Z,2975.62
2018-07-02T07:54:05.473Z,3015.00
2018-07-02T07:55:05.465Z,3088.12
2018-07-02T07:56:05.459Z,3223.12
2018-07-02T07:57:05.445Z,3296.25
2018-07-02T07:58:05.621Z,3223.12
2018-07-02T07:59:05.430Z,3245.62
2018-07-02T08:00:05.418Z,3099.38
2018-07-02T08:01:05.407Z,3088.12
2018-07-02T08:02:05.399Z,3155.62
2018-07-02T08:03:05.389Z,3195.00
2018-07-02T08:04:05.404Z,3251.25
2018-07-02T08:05:05.377Z,3279.38
2018-07-02T08:06:05.363Z,3341.25
2018-07-02T08:07:05.362Z,3313.12
2018-07-02T08:08:05.347Z,3223.12
2018-07-02T08:09:05.335Z,3375.00
2018-07-02T08:10:05.351Z,3285.00
2018-07-02T08:11:05.318Z,3346.88
2018-07-02T08:12:05.313Z,3183.75
2018-07-02T08:13:05.296Z,3431.25
2018-07-02T08:14:05.289Z,3515.62
2018-07-02T08:15:05.281Z,3335.62
2018-07-02T08:16:05.290Z,3808.12
2018-07-02T08:17:05.261Z,3335.62
2018-07-02T08:18:05.252Z,3065.62
2018-07-02T08:19:05.276Z,4449.38
2018-07-02T08:20:05.236Z,3836.25
2018-07-02T08:21:05.225Z,2626.88
2018-07-02T08:22:05.255Z,3931.88
2018-07-02T08:23:05.207Z,4353.75
2018-07-02T08:24:05.198Z,3037.50
2018-07-02T08:25:05.189Z,2812.50
2018-07-02T08:26:05.181Z,4224.38
2018-07-02T08:27:05.172Z,4179.38
2018-07-02T08:28:05.211Z,2829.38
2018-07-02T08:29:05.157Z,3543.75
2018-07-02T08:30:05.147Z,4044.38
2018-07-02T08:31:05.141Z,3369.38
2018-07-02T08:32:05.131Z,3740.62
2018-07-02T08:33:05.121Z,4573.12
2018-07-02T08:34:05.134Z,3796.88
2018-07-02T08:35:05.102Z,3594.38
2018-07-02T08:36:05.094Z,4123.12
2018-07-02T08:37:05.084Z,3718.12
2018-07-02T08:38:05.076Z,3706.88
2018-07-02T08:39:05.065Z,4196.25
2018-07-02T08:40:05.095Z,3774.38
2018-07-02T08:41:05.049Z,3313.12
2018-07-02T08:42:05.039Z,3735.00
2018-07-02T08:43:05.034Z,3943.12
2018-07-02T08:44:05.025Z,3645.00
2018-07-02T08:45:05.014Z,3808.12
2018-07-02T08:46:05.055Z,3926.25
2018-07-02T08:47:04.999Z,3971.25
2018-07-02T08:48:04.991Z,4291.88
2018-07-02T08:49:04.979Z,4173.75
2018-07-02T08:50:04.972Z,3976.88
2018-07-02T08:51:04.964Z,4275.00
2018-07-02T08:52:04.979Z,3999.38
2018-07-02T08:53:04.950Z,3943.12
2018-07-02T08:54:04.938Z,4471.88
2018-07-02T08:55:04.935Z,4702.50
2018-07-02T08:56:04.925Z,4331.25
2018-07-02T08:57:04.916Z,4218.75
2018-07-02T08:58:04.934Z,4308.75
2018-07-02T08:59:04.896Z,4353.75
2018-07-02T09:00:04.890Z,4511.25
2018-07-02T09:01:04.888Z,4657.50
2018-07-02T09:02:04.874Z,4578.75
2018-07-02T09:03:04.873Z,4252.50
2018-07-02T09:04:04.884Z,4151.25
2018-07-02T09:05:04.849Z,4449.38
2018-07-02T09:06:04.838Z,4933.12
2018-07-02T09:07:04.832Z,4494.38
2018-07-02T09:08:04.825Z,5107.50
2018-07-02T09:09:04.815Z,5934.38
2018-07-02T09:10:05.630Z,5248.12
2018-07-02T09:11:04.803Z,4162.50
2018-07-02T09:12:04.790Z,4100.62
2018-07-02T09:13:04.782Z,4809.38
2018-07-02T09:14:04.777Z,5006.25
2018-07-02T09:15:04.769Z,4528.12
2018-07-02T09:16:04.780Z,4050.00
2018-07-02T09:17:04.748Z,3673.12
2018-07-02T09:18:04.741Z,3566.25
2018-07-02T09:19:04.751Z,3886.88
2018-07-02T09:20:04.722Z,4083.75
2018-07-02T09:21:04.723Z,4033.12
2018-07-02T09:22:04.739Z,4117.50
2018-07-02T09:23:04.698Z,4269.38
2018-07-02T09:24:04.693Z,4117.50
2018-07-02T09:25:04.684Z,4021.88
2018-07-02T09:26:04.688Z,4083.75
2018-07-02T09:27:04.665Z,4016.25
2018-07-02T09:28:04.683Z,3993.75
2018-07-02T09:29:04.678Z,3976.88
2018-07-02T09:30:04.682Z,4196.25
2018-07-02T09:31:04.632Z,4488.75
2018-07-02T09:32:04.624Z,4578.75
2018-07-02T09:33:04.639Z,4196.25
2018-07-02T09:34:04.684Z,4016.25
2018-07-02T09:35:04.622Z,4055.62
2018-07-02T09:36:04.617Z,4072.50
2018-07-02T09:37:04.583Z,4128.75
2018-07-02T09:38:04.610Z,4123.12
2018-07-02T09:39:04.613Z,4111.88
2018-07-02T09:40:04.605Z,4100.62
2018-07-02T09:41:04.603Z,4027.50
2018-07-02T09:42:04.544Z,4021.88
2018-07-02T09:43:04.545Z,4331.25
2018-07-02T09:44:04.527Z,4432.50
2018-07-02T09:45:04.521Z,4005.00
2018-07-02T09:46:04.539Z,3976.88
2018-07-02T09:47:04.505Z,4246.88
2018-07-02T09:48:04.497Z,4100.62
2018-07-02T09:49:04.489Z,3633.75
2018-07-02T09:50:04.483Z,3436.88
2018-07-02T09:51:04.472Z,3566.25
2018-07-02T09:52:04.484Z,3549.38
2018-07-02T09:53:04.456Z,3673.12
2018-07-02T09:54:04.449Z,4055.62
2018-07-02T09:55:04.441Z,4252.50
2018-07-02T09:56:04.432Z,4044.38
2018-07-02T09:57:04.433Z,3999.38
2018-07-02T09:58:04.443Z,4061.25
2018-07-02T09:59:04.410Z,4156.88
2018-07-02T10:00:04.403Z,4117.50
2018-07-02T10:01:04.394Z,4185.00
2018-07-02T10:02:04.429Z,4230.00
2018-07-02T10:03:04.379Z,3903.75
2018-07-02T10:04:04.401Z,3909.38
2018-07-02T10:05:04.365Z,4275.00
2018-07-02T10:06:04.360Z,4381.88
2018-07-02T10:07:04.356Z,4336.88
2018-07-02T10:08:04.344Z,4280.62
2018-07-02T10:09:04.337Z,4336.88
2018-07-02T10:10:04.356Z,4140.00
2018-07-02T10:11:04.322Z,3892.50
2018-07-02T10:12:04.314Z,4061.25
2018-07-02T10:13:04.305Z,4252.50
2018-07-02T10:14:04.296Z,4404.38
2018-07-02T10:15:04.289Z,4719.38
2018-07-02T10:16:04.307Z,4786.88
2018-07-02T10:17:04.274Z,4561.88
2018-07-02T10:18:04.266Z,4286.25
2018-07-02T10:19:04.260Z,3943.12
2018-07-02T10:20:04.253Z,3965.62
2018-07-02T10:21:04.244Z,4325.62
2018-07-02T10:22:04.258Z,4657.50
2018-07-02T10:23:04.228Z,4545.00
2018-07-02T10:24:04.221Z,4061.25
2018-07-02T10:25:04.214Z,4151.25
2018-07-02T10:26:04.207Z,4640.62
2018-07-02T10:27:04.200Z,4651.88
2018-07-02T10:28:04.212Z,4179.38
2018-07-02T10:29:04.188Z,3920.62
2018-07-02T10:30:04.177Z,4252.50
2018-07-02T10:31:04.220Z,4674.38
2018-07-02T10:32:04.160Z,4680.00
2018-07-02T10:33:04.157Z,4291.88
2018-07-02T10:34:04.174Z,3763.12
2018-07-02T10:35:04.139Z,3931.88
2018-07-02T10:36:04.131Z,4275.00
2018-07-02T10:37:04.122Z,4410.00
2018-07-02T10:38:04.115Z,4494.38
2018-07-02T10:39:04.109Z,4235.62
2018-07-02T10:40:04.121Z,3785.62
2018-07-02T10:41:04.094Z,3616.88
2018-07-02T10:42:04.084Z,3892.50
2018-07-02T10:43:04.081Z,4230.00
2018-07-02T10:44:04.071Z,4471.88
2018-07-02T10:45:04.062Z,4314.38
2018-07-02T10:46:04.081Z,3774.38
2018-07-02T10:47:04.056Z,3588.75
2018-07-02T10:48:04.067Z,4314.38
2018-07-02T10:49:04.035Z,4297.50
2018-07-02T10:50:04.025Z,3976.88
2018-07-02T10:51:04.021Z,3847.50
2018-07-02T10:52:04.039Z,3813.75
2018-07-02T10:53:04.005Z,3751.88
2018-07-02T10:54:03.997Z,3903.75
2018-07-02T10:55:03.986Z,4044.38
2018-07-02T10:56:03.978Z,4072.50
2018-07-02T10:57:03.973Z,3960.00
2018-07-02T10:58:03.985Z,4111.88
2018-07-02T10:59:03.956Z,4297.50
2018-07-02T11:00:03.956Z,4449.38
2018-07-02T11:01:03.946Z,4286.25
2018-07-02T11:02:03.935Z,3841.88
2018-07-02T11:03:03.926Z,3847.50
2018-07-02T11:04:03.941Z,4044.38
2018-07-02T11:05:03.913Z,4100.62
2018-07-02T11:06:03.902Z,4162.50
2018-07-02T11:07:03.894Z,4151.25
2018-07-02T11:08:03.887Z,4235.62
2018-07-02T11:09:03.882Z,4213.12
2018-07-02T11:10:03.898Z,4066.88
2018-07-02T11:11:03.873Z,4027.50
2018-07-02T11:12:03.858Z,3976.88
2018-07-02T11:13:03.853Z,3993.75
2018-07-02T11:14:03.841Z,3802.50
2018-07-02T11:15:03.835Z,3937.50
2018-07-02T11:16:03.845Z,4173.75
2018-07-02T11:17:03.826Z,4196.25
2018-07-02T11:18:03.813Z,4246.88
2018-07-02T11:19:03.807Z,4196.25
2018-07-02T11:20:03.797Z,4021.88
2018-07-02T11:21:03.790Z,4156.88
2018-07-02T11:22:03.806Z,4145.62
2018-07-02T11:23:03.774Z,4168.12
2018-07-02T11:24:03.768Z,4207.50
2018-07-02T11:25:03.760Z,4140.00
2018-07-02T11:26:03.753Z,4134.38
2018-07-02T11:27:03.747Z,4286.25
2018-07-02T11:28:03.765Z,4230.00
2018-07-02T11:29:03.730Z,4246.88
2018-07-02T11:30:03.722Z,4280.62
2018-07-02T11:31:03.714Z,4083.75
2018-07-02T11:32:03.708Z,3875.62
2018-07-02T11:33:03.702Z,3920.62
2018-07-02T11:34:03.713Z,4078.12
2018-07-02T11:35:03.683Z,3976.88
2018-07-02T11:36:03.676Z,3796.88
2018-07-02T11:37:03.666Z,3926.25
2018-07-02T11:38:03.665Z,3999.38
2018-07-02T11:39:03.653Z,3954.38
2018-07-02T11:40:03.667Z,3948.75
2018-07-02T11:41:03.634Z,3870.00
2018-07-02T11:42:03.631Z,3487.50
2018-07-02T11:43:03.619Z,2289.38
2018-07-02T11:44:03.615Z,928.12
2018-07-02T11:45:03.604Z,275.62
2018-07-02T11:46:03.645Z,253.12
2018-07-02T11:47:03.589Z,241.88
2018-07-02T11:48:03.581Z,241.88
2018-07-02T11:49:03.577Z,236.25
2018-07-02T11:50:03.566Z,230.62
2018-07-02T11:51:03.555Z,230.62
2018-07-02T11:52:03.590Z,225.00
2018-07-02T11:53:03.540Z,219.38
2018-07-02T11:54:03.529Z,219.38
2018-07-02T11:55:03.521Z,213.75
2018-07-02T11:56:03.521Z,213.75
2018-07-02T11:57:03.501Z,208.12
2018-07-02T11:58:03.522Z,208.12
2018-07-02T11:59:03.483Z,208.12
2018-07-02T12:00:03.482Z,208.12
2018-07-02T12:01:03.466Z,208.12
2018-07-02T12:02:03.456Z,208.12
2018-07-02T12:03:03.450Z,208.12
2018-07-02T12:04:03.466Z,202.50
2018-07-02T12:05:03.428Z,202.50
2018-07-02T12:06:03.417Z,202.50
2018-07-02T12:07:03.415Z,202.50
2018-07-02T12:08:03.397Z,202.50
2018-07-02T12:09:03.396Z,202.50
2018-07-02T12:10:03.426Z,202.50
2018-07-02T12:11:03.383Z,202.50
2018-07-02T12:12:03.359Z,202.50
2018-07-02T12:13:03.381Z,196.88
2018-07-02T12:14:03.341Z,196.88
2018-07-02T12:15:03.359Z,196.88
2018-07-02T12:16:03.354Z,196.88
2018-07-02T12:17:03.368Z,196.88
2018-07-02T12:18:03.300Z,196.88
2018-07-02T12:19:03.289Z,196.88
2018-07-02T12:20:03.286Z,196.88
2018-07-02T12:21:03.271Z,191.25
2018-07-02T12:22:03.288Z,191.25
2018-07-02T12:23:03.248Z,191.25
2018-07-02T12:24:03.254Z,191.25
2018-07-02T12:25:03.233Z,191.25
2018-07-02T12:26:03.222Z,191.25
2018-07-02T12:27:03.209Z,191.25
2018-07-02T12:28:03.231Z,196.88
2018-07-02T12:29:03.209Z,191.25
2018-07-02T12:30:03.182Z,191.25
2018-07-02T12:31:03.169Z,185.62
2018-07-02T12:32:03.157Z,185.62
2018-07-02T12:33:03.147Z,185.62
2018-07-02T12:34:03.157Z,185.62